Terminal Aerodrome Forecast
Issued by NWS

Current Version | Previous Version | Graphics & Text | Print | Product List | Glossary On
Versions: 1 2 3 4 5 6 7 8 9 10 11 12 13 14 15 16 17 18
000
FTUS41 KPBZ 241723
TAFHLG
TAF
KHLG 241723Z 2418/2518 20007KT P6SM SCT040 SCT250
     FM250500 19005KT P6SM VCSH SCT040 BKN250
     FM251600 22008KT P6SM VCTS BKN035CB=

USA.gov is the U.S. government's official web portal to all federal, state and local government web resources and services.